sensor_id;sensor_type;location;lat;lon;timestamp;pressure;altitude;pressure_sealevel;temperature;humidity
63554;BME280;49699;48.072;7.800;2022-09-09T00:04:13;99114.25;;;17.03;69.16
63554;BME280;49699;48.072;7.800;2022-09-09T00:07:15;99113.16;;;17.06;69.19
63554;BME280;49699;48.072;7.800;2022-09-09T00:10:11;99120.22;;;17.05;69.17
63554;BME280;49699;48.072;7.800;2022-09-09T00:12:59;99112.47;;;17.04;69.37
63554;BME280;49699;48.072;7.800;2022-09-09T00:18:25;99120.34;;;16.94;69.83
63554;BME280;49699;48.072;7.800;2022-09-09T00:20:56;99116.06;;;16.93;69.62
63554;BME280;49699;48.072;7.800;2022-09-09T00:23:36;99129.59;;;16.88;69.82
63554;BME280;49699;48.072;7.800;2022-09-09T00:26:10;99121.59;;;16.80;69.86
63554;BME280;49699;48.072;7.800;2022-09-09T00:28:47;99130.13;;;16.73;70.17
63554;BME280;49699;48.072;7.800;2022-09-09T00:31:21;99134.94;;;16.67;70.36
63554;BME280;49699;48.072;7.800;2022-09-09T00:33:49;99137.69;;;16.66;70.44
63554;BME280;49699;48.072;7.800;2022-09-09T00:36:18;99136.75;;;16.67;70.33
63554;BME280;49699;48.072;7.800;2022-09-09T00:38:59;99139.38;;;16.67;70.51
63554;BME280;49699;48.072;7.800;2022-09-09T00:41:50;99138.41;;;16.68;70.58
63554;BME280;49699;48.072;7.800;2022-09-09T00:52:32;99129.81;;;16.66;70.67
63554;BME280;49699;48.072;7.800;2022-09-09T00:57:36;99146.72;;;16.63;71.00
63554;BME280;49699;48.072;7.800;2022-09-09T01:00:25;99141.31;;;16.65;70.83
63554;BME280;49699;48.072;7.800;2022-09-09T01:02:57;99135.91;;;16.66;70.84
63554;BME280;49699;48.072;7.800;2022-09-09T01:05:41;99134.81;;;16.69;70.64
63554;BME280;49699;48.072;7.800;2022-09-09T01:11:52;99129.72;;;16.77;70.21
63554;BME280;49699;48.072;7.800;2022-09-09T01:17:04;99129.47;;;16.90;69.67
63554;BME280;49699;48.072;7.800;2022-09-09T01:22:40;99134.06;;;16.97;69.09
63554;BME280;49699;48.072;7.800;2022-09-09T01:28:22;99128.81;;;17.07;68.53
63554;BME280;49699;48.072;7.800;2022-09-09T01:30:52;99132.97;;;17.10;68.35
63554;BME280;49699;48.072;7.800;2022-09-09T01:33:22;99139.88;;;17.11;68.21
63554;BME280;49699;48.072;7.800;2022-09-09T01:35:55;99146.94;;;17.10;67.94
63554;BME280;49699;48.072;7.800;2022-09-09T01:38:27;99149.69;;;17.09;67.96
63554;BME280;49699;48.072;7.800;2022-09-09T01:40:54;99147.91;;;17.09;67.86
63554;BME280;49699;48.072;7.800;2022-09-09T01:43:25;99152.91;;;17.12;67.83
63554;BME280;49699;48.072;7.800;2022-09-09T01:45:53;99142.94;;;17.16;67.56
63554;BME280;49699;48.072;7.800;2022-09-09T01:48:21;99141.00;;;17.18;67.56
63554;BME280;49699;48.072;7.800;2022-09-09T01:50:59;99147.75;;;17.20;67.43
63554;BME280;49699;48.072;7.800;2022-09-09T01:53:25;99152.19;;;17.20;67.25
63554;BME280;49699;48.072;7.800;2022-09-09T01:58:37;99144.47;;;17.18;67.36
63554;BME280;49699;48.072;7.800;2022-09-09T02:03:54;99141.16;;;17.16;67.30
63554;BME280;49699;48.072;7.800;2022-09-09T02:06:34;99144.47;;;17.18;67.24
63554;BME280;49699;48.072;7.800;2022-09-09T02:09:12;99141.69;;;17.20;67.13
63554;BME280;49699;48.072;7.800;2022-09-09T02:11:40;99147.75;;;17.20;67.18
63554;BME280;49699;48.072;7.800;2022-09-09T02:14:26;99138.91;;;17.21;67.15
63554;BME280;49699;48.072;7.800;2022-09-09T02:17:01;99138.06;;;17.21;67.17
63554;BME280;49699;48.072;7.800;2022-09-09T02:19:50;99133.66;;;17.21;67.17
63554;BME280;49699;48.072;7.800;2022-09-09T02:22:26;99140.56;;;17.22;67.19
63554;BME280;49699;48.072;7.800;2022-09-09T02:24:54;99143.34;;;17.21;67.18
63554;BME280;49699;48.072;7.800;2022-09-09T02:27:25;99144.16;;;17.21;67.24
63554;BME280;49699;48.072;7.800;2022-09-09T02:29:52;99139.88;;;17.20;67.42
63554;BME280;49699;48.072;7.800;2022-09-09T02:32:28;99133.78;;;17.20;67.53
63554;BME280;49699;48.072;7.800;2022-09-09T02:35:01;99138.25;;;17.19;67.60
63554;BME280;49699;48.072;7.800;2022-09-09T02:37:32;99141.00;;;17.18;67.68
63554;BME280;49699;48.072;7.800;2022-09-09T02:40:03;99135.47;;;17.11;67.82
63554;BME280;49699;48.072;7.800;2022-09-09T02:42:30;99135.59;;;17.10;68.04
63554;BME280;49699;48.072;7.800;2022-09-09T02:44:57;99137.66;;;17.06;68.27
63554;BME280;49699;48.072;7.800;2022-09-09T02:47:29;99141.53;;;17.02;68.55
63554;BME280;49699;48.072;7.800;2022-09-09T02:52:51;99139.44;;;16.96;68.80
63554;BME280;49699;48.072;7.800;2022-09-09T02:58:00;99145.63;;;16.85;69.12
63554;BME280;49699;48.072;7.800;2022-09-09T03:00:28;99140.25;;;16.77;69.30
63554;BME280;49699;48.072;7.800;2022-09-09T03:02:58;99138.97;;;16.72;69.67
63554;BME280;49699;48.072;7.800;2022-09-09T03:05:24;99133.97;;;16.69;69.90
63554;BME280;49699;48.072;7.800;2022-09-09T03:07:50;99131.66;;;16.65;69.93
63554;BME280;49699;48.072;7.800;2022-09-09T03:10:18;99138.81;;;16.63;70.21
63554;BME280;49699;48.072;7.800;2022-09-09T03:12:43;99131.88;;;16.62;70.38
63554;BME280;49699;48.072;7.800;2022-09-09T03:15:09;99142.66;;;16.59;70.50
63554;BME280;49699;48.072;7.800;2022-09-09T03:17:36;99132.97;;;16.60;70.58
63554;BME280;49699;48.072;7.800;2022-09-09T03:20:03;99138.34;;;16.58;70.75
63554;BME280;49699;48.072;7.800;2022-09-09T03:22:30;99134.06;;;16.57;70.91
63554;BME280;49699;48.072;7.800;2022-09-09T03:24:58;99135.84;;;16.57;70.94
63554;BME280;49699;48.072;7.800;2022-09-09T03:27:23;99131.31;;;16.59;70.83
63554;BME280;49699;48.072;7.800;2022-09-09T03:29:50;99133.81;;;16.60;70.88
63554;BME280;49699;48.072;7.800;2022-09-09T03:32:19;99137.25;;;16.61;71.10
63554;BME280;49699;48.072;7.800;2022-09-09T03:34:48;99142.38;;;16.62;71.06
63554;BME280;49699;48.072;7.800;2022-09-09T03:37:21;99124.84;;;16.63;71.03
63554;BME280;49699;48.072;7.800;2022-09-09T03:39:49;99127.47;;;16.63;71.13
63554;BME280;49699;48.072;7.800;2022-09-09T03:42:16;99125.69;;;16.63;71.22
63554;BME280;49699;48.072;7.800;2022-09-09T03:44:46;99118.63;;;16.64;71.02
63554;BME280;49699;48.072;7.800;2022-09-09T03:47:19;99120.13;;;16.66;71.13
63554;BME280;49699;48.072;7.800;2022-09-09T03:49:47;99126.09;;;16.69;71.06
63554;BME280;49699;48.072;7.800;2022-09-09T03:52:14;99117.50;;;16.66;71.27
63554;BME280;49699;48.072;7.800;2022-09-09T03:54:41;99118.75;;;16.62;71.42
63554;BME280;49699;48.072;7.800;2022-09-09T03:57:09;99133.09;;;16.58;71.50
63554;BME280;49699;48.072;7.800;2022-09-09T03:59:35;99135.03;;;16.56;71.70
63554;BME280;49699;48.072;7.800;2022-09-09T04:02:02;99123.94;;;16.53;71.80
63554;BME280;49699;48.072;7.800;2022-09-09T04:04:27;99131.25;;;16.49;72.01
63554;BME280;49699;48.072;7.800;2022-09-09T04:06:53;99117.72;;;16.44;72.10
63554;BME280;49699;48.072;7.800;2022-09-09T04:09:19;99119.75;;;16.41;72.08
63554;BME280;49699;48.072;7.800;2022-09-09T04:11:45;99121.69;;;16.39;72.23
63554;BME280;49699;48.072;7.800;2022-09-09T04:14:12;99119.91;;;16.39;72.08
63554;BME280;49699;48.072;7.800;2022-09-09T04:16:38;99113.69;;;16.40;72.14
63554;BME280;49699;48.072;7.800;2022-09-09T04:19:04;99117.28;;;16.39;72.16
63554;BME280;49699;48.072;7.800;2022-09-09T04:21:32;99117.28;;;16.39;72.08
63554;BME280;49699;48.072;7.800;2022-09-09T04:23:58;99112.97;;;16.38;71.94
63554;BME280;49699;48.072;7.800;2022-09-09T04:26:25;99114.50;;;16.41;71.86
63554;BME280;49699;48.072;7.800;2022-09-09T04:28:51;99116.19;;;16.42;71.89
63554;BME280;49699;48.072;7.800;2022-09-09T04:31:22;99116.06;;;16.43;71.63
63554;BME280;49699;48.072;7.800;2022-09-09T04:33:50;99121.16;;;16.45;71.48
63554;BME280;49699;48.072;7.800;2022-09-09T04:36:16;99119.38;;;16.45;71.66
63554;BME280;49699;48.072;7.800;2022-09-09T04:38:43;99114.81;;;16.47;71.47
63554;BME280;49699;48.072;7.800;2022-09-09T04:41:10;99112.59;;;16.52;71.09
63554;BME280;49699;48.072;7.800;2022-09-09T04:43:38;99116.63;;;16.56;71.03
63554;BME280;49699;48.072;7.800;2022-09-09T04:46:06;99118.03;;;16.60;70.97
63554;BME280;49699;48.072;7.800;2022-09-09T04:48:31;99120.31;;;16.65;70.69
63554;BME280;49699;48.072;7.800;2022-09-09T04:50:59;99122.50;;;16.70;70.50
63554;BME280;49699;48.072;7.800;2022-09-09T04:53:25;99125.69;;;16.73;70.43
63554;BME280;49699;48.072;7.800;2022-09-09T04:56:00;99125.56;;;16.75;70.17
63554;BME280;49699;48.072;7.800;2022-09-09T04:58:26;99128.06;;;16.76;70.26
63554;BME280;49699;48.072;7.800;2022-09-09T05:00:52;99125.16;;;16.79;70.45
63554;BME280;49699;48.072;7.800;2022-09-09T05:03:18;99126.97;;;16.79;70.30
63554;BME280;49699;48.072;7.800;2022-09-09T05:05:44;99132.09;;;16.80;70.47
63554;BME280;49699;48.072;7.800;2022-09-09T05:08:10;99135.41;;;16.82;70.35
63554;BME280;49699;48.072;7.800;2022-09-09T05:10:38;99130.84;;;16.84;70.34
63554;BME280;49699;48.072;7.800;2022-09-09T05:13:05;99133.47;;;16.84;70.41
63554;BME280;49699;48.072;7.800;2022-09-09T05:15:31;99134.28;;;16.85;70.37
63554;BME280;49699;48.072;7.800;2022-09-09T05:18:01;99137.34;;;16.90;70.48
63554;BME280;49699;48.072;7.800;2022-09-09T05:20:29;99131.97;;;16.91;70.44
63554;BME280;49699;48.072;7.800;2022-09-09T05:22:56;99135.28;;;16.93;70.34
63554;BME280;49699;48.072;7.800;2022-09-09T05:25:24;99135.03;;;16.96;70.15
63554;BME280;49699;48.072;7.800;2022-09-09T05:27:54;99140.16;;;16.98;70.20
63554;BME280;49699;48.072;7.800;2022-09-09T05:30:20;99138.34;;;16.98;70.32
63554;BME280;49699;48.072;7.800;2022-09-09T05:32:47;99140.72;;;17.02;70.19
63554;BME280;49699;48.072;7.800;2022-09-09T05:35:14;99139.59;;;17.04;70.16
63554;BME280;49699;48.072;7.800;2022-09-09T05:37:40;99142.09;;;17.06;69.91
63554;BME280;49699;48.072;7.800;2022-09-09T05:40:06;99145.28;;;17.09;70.02
63554;BME280;49699;48.072;7.800;2022-09-09T05:42:32;99138.91;;;17.12;69.84
63554;BME280;49699;48.072;7.800;2022-09-09T05:44:58;99139.47;;;17.15;69.74
63554;BME280;49699;48.072;7.800;2022-09-09T05:47:24;99141.84;;;17.18;69.71
63554;BME280;49699;48.072;7.800;2022-09-09T05:49:53;99146.81;;;17.21;69.65
63554;BME280;49699;48.072;7.800;2022-09-09T05:52:18;99137.81;;;17.24;69.81
63554;BME280;49699;48.072;7.800;2022-09-09T05:54:43;99147.22;;;17.26;69.41
63554;BME280;49699;48.072;7.800;2022-09-09T05:57:09;99143.38;;;17.30;69.40
63554;BME280;49699;48.072;7.800;2022-09-09T05:59:34;99153.47;;;17.35;69.17
63554;BME280;49699;48.072;7.800;2022-09-09T06:02:01;99153.03;;;17.40;68.96
63554;BME280;49699;48.072;7.800;2022-09-09T06:04:32;99158.72;;;17.45;68.91
63554;BME280;49699;48.072;7.800;2022-09-09T06:06:59;99157.34;;;17.50;68.66
63554;BME280;49699;48.072;7.800;2022-09-09T06:09:25;99156.13;;;17.54;68.61
63554;BME280;49699;48.072;7.800;2022-09-09T06:11:50;99148.59;;;17.59;68.34
63554;BME280;49699;48.072;7.800;2022-09-09T06:14:16;99148.22;;;17.64;68.28
63554;BME280;49699;48.072;7.800;2022-09-09T06:16:45;99147.13;;;17.66;68.25
63554;BME280;49699;48.072;7.800;2022-09-09T06:19:16;99157.25;;;17.71;68.26
63554;BME280;49699;48.072;7.800;2022-09-09T06:21:43;99155.31;;;17.73;68.25
63554;BME280;49699;48.072;7.800;2022-09-09T06:24:10;99160.13;;;17.78;68.21
63554;BME280;49699;48.072;7.800;2022-09-09T06:26:39;99152.78;;;17.81;68.13
63554;BME280;49699;48.072;7.800;2022-09-09T06:29:10;99144.47;;;17.86;67.92
63554;BME280;49699;48.072;7.800;2022-09-09T06:31:36;99153.88;;;17.88;67.85
63554;BME280;49699;48.072;7.800;2022-09-09T06:34:11;99154.41;;;17.92;67.75
63554;BME280;49699;48.072;7.800;2022-09-09T06:36:40;99154.81;;;17.97;67.53
63554;BME280;49699;48.072;7.800;2022-09-09T06:39:07;99155.09;;;18.03;67.56
63554;BME280;49699;48.072;7.800;2022-09-09T06:41:33;99155.19;;;18.12;67.23
63554;BME280;49699;48.072;7.800;2022-09-09T06:44:01;99164.34;;;18.17;67.03
63554;BME280;49699;48.072;7.800;2022-09-09T06:46:33;99168.63;;;18.18;66.99
63554;BME280;49699;48.072;7.800;2022-09-09T06:49:01;99166.97;;;18.17;67.03
63554;BME280;49699;48.072;7.800;2022-09-09T06:51:33;99167.13;;;18.16;67.10
63554;BME280;49699;48.072;7.800;2022-09-09T06:54:02;99165.88;;;18.20;67.01
63554;BME280;49699;48.072;7.800;2022-09-09T06:56:33;99165.81;;;18.29;66.87
63554;BME280;49699;48.072;7.800;2022-09-09T06:59:04;99164.00;;;18.39;66.73
63554;BME280;49699;48.072;7.800;2022-09-09T07:01:37;99170.19;;;18.48;66.37
63554;BME280;49699;48.072;7.800;2022-09-09T07:04:06;99172.13;;;18.56;66.29
63554;BME280;49699;48.072;7.800;2022-09-09T07:06:43;99168.63;;;18.65;66.10
63554;BME280;49699;48.072;7.800;2022-09-09T07:09:13;99181.63;;;18.76;65.83
63554;BME280;49699;48.072;7.800;2022-09-09T07:11:49;99176.44;;;18.84;65.45
63554;BME280;49699;48.072;7.800;2022-09-09T07:14:17;99183.19;;;18.96;65.20
63554;BME280;49699;48.072;7.800;2022-09-09T07:16:46;99180.50;;;19.06;64.88
63554;BME280;49699;48.072;7.800;2022-09-09T07:19:13;99183.91;;;19.16;64.53
63554;BME280;49699;48.072;7.800;2022-09-09T07:21:40;99189.09;;;19.26;64.30
63554;BME280;49699;48.072;7.800;2022-09-09T07:24:07;99185.06;;;19.31;64.03
63554;BME280;49699;48.072;7.800;2022-09-09T07:26:36;99187.53;;;19.33;63.80
63554;BME280;49699;48.072;7.800;2022-09-09T07:29:02;99190.84;;;19.35;63.97
63554;BME280;49699;48.072;7.800;2022-09-09T07:31:31;99187.31;;;19.44;63.87
63554;BME280;49699;48.072;7.800;2022-09-09T07:33:58;99187.63;;;19.59;63.38
63554;BME280;49699;48.072;7.800;2022-09-09T07:36:51;99187.88;;;19.65;63.10
63554;BME280;49699;48.072;7.800;2022-09-09T07:39:17;99184.56;;;19.63;63.23
63554;BME280;49699;48.072;7.800;2022-09-09T07:41:48;99190.97;;;19.61;63.23
63554;BME280;49699;48.072;7.800;2022-09-09T07:44:20;99197.38;;;19.58;63.28
63554;BME280;49699;48.072;7.800;2022-09-09T07:46:59;99196.16;;;19.53;63.42
63554;BME280;49699;48.072;7.800;2022-09-09T07:49:30;99201.28;;;19.54;63.14
63554;BME280;49699;48.072;7.800;2022-09-09T07:51:55;99203.47;;;19.59;63.02
63554;BME280;49699;48.072;7.800;2022-09-09T07:54:21;99192.09;;;19.58;63.02
63554;BME280;49699;48.072;7.800;2022-09-09T07:56:50;99193.22;;;19.56;62.99
63554;BME280;49699;48.072;7.800;2022-09-09T07:59:16;99203.28;;;19.52;63.06
63554;BME280;49699;48.072;7.800;2022-09-09T08:01:47;99213.00;;;19.52;63.03
63554;BME280;49699;48.072;7.800;2022-09-09T08:04:18;99200.06;;;19.49;62.84
63554;BME280;49699;48.072;7.800;2022-09-09T08:06:51;99204.66;;;19.47;62.85
63554;BME280;49699;48.072;7.800;2022-09-09T08:09:22;99202.03;;;19.47;62.93
63554;BME280;49699;48.072;7.800;2022-09-09T08:11:50;99196.47;;;19.50;62.86
63554;BME280;49699;48.072;7.800;2022-09-09T08:14:16;99203.03;;;19.63;62.48
63554;BME280;49699;48.072;7.800;2022-09-09T08:16:44;99203.69;;;19.83;61.90
63554;BME280;49699;48.072;7.800;2022-09-09T08:19:12;99194.78;;;20.02;61.27
63554;BME280;49699;48.072;7.800;2022-09-09T08:21:41;99195.25;;;20.23;60.73
63554;BME280;49699;48.072;7.800;2022-09-09T08:24:08;99199.53;;;20.42;60.25
63554;BME280;49699;48.072;7.800;2022-09-09T08:26:41;99198.44;;;20.61;59.67
63554;BME280;49699;48.072;7.800;2022-09-09T08:29:10;99193.91;;;20.79;59.23
63554;BME280;49699;48.072;7.800;2022-09-09T08:31:48;99207.84;;;20.89;58.73
63554;BME280;49699;48.072;7.800;2022-09-09T08:34:15;99196.97;;;21.00;58.60
63554;BME280;49699;48.072;7.800;2022-09-09T08:36:45;99192.53;;;21.17;58.10
63554;BME280;49699;48.072;7.800;2022-09-09T08:39:15;99202.38;;;21.33;57.62
63554;BME280;49699;48.072;7.800;2022-09-09T08:48:05;99198.47;;;21.77;56.56
63554;BME280;49699;48.072;7.800;2022-09-09T08:50:35;99204.25;;;21.89;56.27
63554;BME280;49699;48.072;7.800;2022-09-09T08:53:24;99191.69;;;22.07;55.55
63554;BME280;49699;48.072;7.800;2022-09-09T08:55:59;99195.31;;;22.23;55.23
63554;BME280;49699;48.072;7.800;2022-09-09T08:59:00;99198.94;;;22.38;55.01
63554;BME280;49699;48.072;7.800;2022-09-09T09:02:09;99203.22;;;22.47;54.35
63554;BME280;49699;48.072;7.800;2022-09-09T09:10:00;99205.94;;;22.86;52.83
63554;BME280;49699;48.072;7.800;2022-09-09T09:12:42;99205.53;;;23.05;52.29
63554;BME280;49699;48.072;7.800;2022-09-09T09:15:21;99206.28;;;23.14;51.94
63554;BME280;49699;48.072;7.800;2022-09-09T09:17:50;99200.72;;;23.01;51.69
63554;BME280;49699;48.072;7.800;2022-09-09T09:20:19;99197.31;;;22.84;52.05
63554;BME280;49699;48.072;7.800;2022-09-09T09:22:51;99201.16;;;22.73;52.55
63554;BME280;49699;48.072;7.800;2022-09-09T09:25:20;99204.16;;;22.62;52.75
63554;BME280;49699;48.072;7.800;2022-09-09T09:28:00;99205.19;;;22.53;52.67
63554;BME280;49699;48.072;7.800;2022-09-09T09:30:40;99204.53;;;22.43;52.85
63554;BME280;49699;48.072;7.800;2022-09-09T09:33:16;99190.66;;;22.33;52.92
63554;BME280;49699;48.072;7.800;2022-09-09T09:35:44;99199.56;;;22.48;52.72
63554;BME280;49699;48.072;7.800;2022-09-09T09:38:19;99206.09;;;22.76;51.76
63554;BME280;49699;48.072;7.800;2022-09-09T09:40:57;99190.44;;;22.98;50.84
63554;BME280;49699;48.072;7.800;2022-09-09T09:43:27;99192.59;;;23.02;50.49
63554;BME280;49699;48.072;7.800;2022-09-09T09:45:53;99185.66;;;22.93;50.50
63554;BME280;49699;48.072;7.800;2022-09-09T09:48:19;99191.84;;;22.85;50.86
63554;BME280;49699;48.072;7.800;2022-09-09T09:50:54;99179.19;;;22.96;50.42
63554;BME280;49699;48.072;7.800;2022-09-09T09:53:28;99183.88;;;23.16;49.83
63554;BME280;49699;48.072;7.800;2022-09-09T09:56:10;99180.44;;;23.39;49.23
63554;BME280;49699;48.072;7.800;2022-09-09T10:01:42;99176.06;;;23.92;47.38
63554;BME280;49699;48.072;7.800;2022-09-09T10:04:19;99176.44;;;24.03;47.25
63554;BME280;49699;48.072;7.800;2022-09-09T10:06:46;99175.66;;;24.17;46.96
63554;BME280;49699;48.072;7.800;2022-09-09T10:09:30;99168.13;;;24.21;46.57
63554;BME280;49699;48.072;7.800;2022-09-09T10:17:41;99159.94;;;24.45;45.62
63554;BME280;49699;48.072;7.800;2022-09-09T10:20:39;99164.34;;;24.53;45.18
63554;BME280;49699;48.072;7.800;2022-09-09T10:31:27;99181.66;;;23.51;46.34
63554;BME280;49699;48.072;7.800;2022-09-09T10:34:14;99173.47;;;23.38;46.23
63554;BME280;49699;48.072;7.800;2022-09-09T10:36:47;99182.88;;;23.17;46.71
63554;BME280;49699;48.072;7.800;2022-09-09T10:42:05;99180.41;;;22.85;47.06
63554;BME280;49699;48.072;7.800;2022-09-09T10:47:26;99185.06;;;22.75;46.81
63554;BME280;49699;48.072;7.800;2022-09-09T10:55:43;99196.06;;;23.11;45.71
63554;BME280;49699;48.072;7.800;2022-09-09T10:58:15;99186.97;;;22.97;45.75
63554;BME280;49699;48.072;7.800;2022-09-09T11:00:56;99207.28;;;22.82;45.98
63554;BME280;49699;48.072;7.800;2022-09-09T11:03:28;99209.63;;;22.61;46.37
63554;BME280;49699;48.072;7.800;2022-09-09T11:06:06;99204.38;;;22.44;46.59
63554;BME280;49699;48.072;7.800;2022-09-09T11:08:34;99197.63;;;22.34;46.91
63554;BME280;49699;48.072;7.800;2022-09-09T11:16:52;99214.34;;;22.26;47.03
63554;BME280;49699;48.072;7.800;2022-09-09T11:19:33;99210.03;;;22.25;47.03
63554;BME280;49699;48.072;7.800;2022-09-09T11:22:02;99198.47;;;22.18;47.18
63554;BME280;49699;48.072;7.800;2022-09-09T11:24:37;99211.41;;;22.13;47.10
63554;BME280;49699;48.072;7.800;2022-09-09T11:27:35;99215.88;;;22.04;47.25
63554;BME280;49699;48.072;7.800;2022-09-09T11:30:20;99210.72;;;21.95;47.60
63554;BME280;49699;48.072;7.800;2022-09-09T11:33:03;99210.38;;;21.90;47.76
63554;BME280;49699;48.072;7.800;2022-09-09T11:43:28;99204.03;;;22.47;47.12
63554;BME280;49699;48.072;7.800;2022-09-09T11:46:01;99201.22;;;22.49;47.30
63554;BME280;49699;48.072;7.800;2022-09-09T11:48:40;99204.03;;;22.47;47.39
63554;BME280;49699;48.072;7.800;2022-09-09T11:51:28;99203.53;;;22.52;47.29
63554;BME280;49699;48.072;7.800;2022-09-09T11:53:56;99198.38;;;22.59;47.19
63554;BME280;49699;48.072;7.800;2022-09-09T11:56:43;99203.16;;;22.63;46.99
63554;BME280;49699;48.072;7.800;2022-09-09T11:59:30;99196.53;;;22.67;46.79
63554;BME280;49699;48.072;7.800;2022-09-09T12:02:22;99197.19;;;22.69;46.68
63554;BME280;49699;48.072;7.800;2022-09-09T12:04:58;99207.78;;;22.69;46.43
63554;BME280;49699;48.072;7.800;2022-09-09T12:07:51;99191.03;;;22.77;46.01
63554;BME280;49699;48.072;7.800;2022-09-09T12:10:29;99199.97;;;22.84;45.60
63554;BME280;49699;48.072;7.800;2022-09-09T12:13:08;99196.00;;;22.80;45.66
63554;BME280;49699;48.072;7.800;2022-09-09T12:15:50;99197.19;;;22.69;45.67
63554;BME280;49699;48.072;7.800;2022-09-09T12:18:35;99200.34;;;22.65;45.60
63554;BME280;49699;48.072;7.800;2022-09-09T12:24:09;99186.91;;;22.66;45.56
63554;BME280;49699;48.072;7.800;2022-09-09T12:26:53;99190.03;;;22.78;45.13
63554;BME280;49699;48.072;7.800;2022-09-09T12:29:40;99185.31;;;22.96;44.60
63554;BME280;49699;48.072;7.800;2022-09-09T12:32:11;99192.91;;;23.07;44.21
63554;BME280;49699;48.072;7.800;2022-09-09T12:35:03;99189.28;;;23.00;44.35
63554;BME280;49699;48.072;7.800;2022-09-09T12:40:20;99188.72;;;22.74;44.74
63554;BME280;49699;48.072;7.800;2022-09-09T12:42:45;99187.09;;;22.65;44.85
63554;BME280;49699;48.072;7.800;2022-09-09T12:45:22;99186.09;;;22.58;45.04
63554;BME280;49699;48.072;7.800;2022-09-09T12:48:01;99190.63;;;22.49;45.08
63554;BME280;49699;48.072;7.800;2022-09-09T12:50:33;99178.19;;;22.41;44.94
63554;BME280;49699;48.072;7.800;2022-09-09T12:53:10;99177.53;;;22.39;44.95
63554;BME280;49699;48.072;7.800;2022-09-09T12:55:38;99177.06;;;22.36;44.88
63554;BME280;49699;48.072;7.800;2022-09-09T12:58:05;99174.09;;;22.31;45.00
63554;BME280;49699;48.072;7.800;2022-09-09T13:00:32;99170.94;;;22.27;45.34
63554;BME280;49699;48.072;7.800;2022-09-09T13:03:01;99176.59;;;22.24;45.32
63554;BME280;49699;48.072;7.800;2022-09-09T13:05:28;99172.81;;;22.19;45.35
63554;BME280;49699;48.072;7.800;2022-09-09T13:08:08;99173.28;;;22.14;45.43
63554;BME280;49699;48.072;7.800;2022-09-09T13:10:48;99177.28;;;22.10;45.53
63554;BME280;49699;48.072;7.800;2022-09-09T13:13:15;99172.63;;;22.12;45.56
63554;BME280;49699;48.072;7.800;2022-09-09T13:15:49;99170.78;;;22.29;45.26
63554;BME280;49699;48.072;7.800;2022-09-09T13:18:19;99165.91;;;22.48;44.87
63554;BME280;49699;48.072;7.800;2022-09-09T13:20:48;99164.19;;;22.64;44.77
63554;BME280;49699;48.072;7.800;2022-09-09T13:23:15;99169.69;;;22.62;44.86
63554;BME280;49699;48.072;7.800;2022-09-09T13:25:53;99166.06;;;22.55;45.14
63554;BME280;49699;48.072;7.800;2022-09-09T13:28:24;99163.94;;;22.50;45.44
63554;BME280;49699;48.072;7.800;2022-09-09T13:31:04;99169.56;;;22.47;45.64
63554;BME280;49699;48.072;7.800;2022-09-09T13:35:57;99162.50;;;22.32;46.24
63554;BME280;49699;48.072;7.800;2022-09-09T13:38:24;99174.28;;;22.21;46.59
63554;BME280;49699;48.072;7.800;2022-09-09T13:41:04;99180.25;;;22.07;46.89
63554;BME280;49699;48.072;7.800;2022-09-09T13:43:51;99166.50;;;21.95;47.54
63554;BME280;49699;48.072;7.800;2022-09-09T13:46:38;99165.50;;;21.88;47.55
63554;BME280;49699;48.072;7.800;2022-09-09T13:54:11;99160.38;;;21.54;48.86
63554;BME280;49699;48.072;7.800;2022-09-09T13:56:38;99168.84;;;21.50;49.22
63554;BME280;49699;48.072;7.800;2022-09-09T13:59:09;99163.53;;;21.50;49.41
63554;BME280;49699;48.072;7.800;2022-09-09T14:01:35;99157.41;;;21.65;49.68
63554;BME280;49699;48.072;7.800;2022-09-09T14:04:02;99163.00;;;21.87;49.22
63554;BME280;49699;48.072;7.800;2022-09-09T14:06:27;99158.75;;;22.02;48.77
63554;BME280;49699;48.072;7.800;2022-09-09T14:08:54;99153.75;;;22.15;48.53
63554;BME280;49699;48.072;7.800;2022-09-09T14:11:20;99161.34;;;22.26;48.34
63554;BME280;49699;48.072;7.800;2022-09-09T14:13:47;99168.13;;;22.37;48.44
63554;BME280;49699;48.072;7.800;2022-09-09T14:16:12;99175.03;;;22.46;48.24
63554;BME280;49699;48.072;7.800;2022-09-09T14:18:38;99169.88;;;22.52;48.10
63554;BME280;49699;48.072;7.800;2022-09-09T14:21:04;99169.50;;;22.64;47.91
63554;BME280;49699;48.072;7.800;2022-09-09T14:23:30;99179.56;;;22.76;47.51
63554;BME280;49699;48.072;7.800;2022-09-09T14:25:55;99174.28;;;22.84;47.34
63554;BME280;49699;48.072;7.800;2022-09-09T14:28:21;99164.44;;;22.93;47.32
63554;BME280;49699;48.072;7.800;2022-09-09T14:30:47;99164.91;;;22.97;47.39
63554;BME280;49699;48.072;7.800;2022-09-09T14:33:14;99178.00;;;22.98;47.43
63554;BME280;49699;48.072;7.800;2022-09-09T14:35:41;99162.91;;;22.99;47.44
63554;BME280;49699;48.072;7.800;2022-09-09T14:38:07;99171.38;;;23.02;47.62
63554;BME280;49699;48.072;7.800;2022-09-09T14:40:35;99165.41;;;23.00;47.49
63554;BME280;49699;48.072;7.800;2022-09-09T14:43:01;99160.97;;;22.93;47.67
63554;BME280;49699;48.072;7.800;2022-09-09T14:45:27;99152.03;;;22.85;47.83
63554;BME280;49699;48.072;7.800;2022-09-09T14:47:53;99156.38;;;22.78;47.92
63554;BME280;49699;48.072;7.800;2022-09-09T14:50:20;99169.16;;;22.67;48.14
63554;BME280;49699;48.072;7.800;2022-09-09T14:52:46;99167.72;;;22.56;48.44
63554;BME280;49699;48.072;7.800;2022-09-09T14:55:12;99166.44;;;22.44;48.61
63554;BME280;49699;48.072;7.800;2022-09-09T14:57:37;99168.47;;;22.34;48.74
63554;BME280;49699;48.072;7.800;2022-09-09T15:00:04;99168.63;;;22.24;48.82
63554;BME280;49699;48.072;7.800;2022-09-09T15:02:30;99169.97;;;22.20;48.75
63554;BME280;49699;48.072;7.800;2022-09-09T15:04:56;99176.50;;;22.57;47.46
63554;BME280;49699;48.072;7.800;2022-09-09T15:07:25;99177.47;;;22.64;47.16
63554;BME280;49699;48.072;7.800;2022-09-09T15:09:52;99173.66;;;22.58;46.90